Time;durP1;ratioP1;P1;durP2;ratioP2;P2;SDS_P1;SDS_P2;PMS_P1;PMS_P2;Temp;Humidity;BMP_temperature;BMP_pressure;BME280_temperature;BME280_humidity;BME280_pressure;Samples;Min_cycle;Max_cycle;Signal;HPM_P1;HPM_P2
2022/08/28 00:01:34;;;;;;;15.47;14.07;;;;;;;;;;5053227;28;20462;-74
2022/08/28 00:04:00;;;;;;;17.13;13.20;;;;;;;;;;5038046;28;20448;-72
2022/08/28 00:06:27;;;;;;;16.43;13.77;;;;;;;;;;5076451;28;20436;-72
2022/08/28 00:08:53;;;;;;;14.97;13.57;;;;;;;;;;5053477;28;20775;-72
2022/08/28 00:11:20;;;;;;;14.47;13.17;;;;;;;;;;5053391;28;21225;-72
2022/08/28 00:13:47;;;;;;;14.70;13.20;;;;;;;;;;5053279;28;20459;-72
2022/08/28 00:16:14;;;;;;;15.10;13.70;;;;;;;;;;5053244;28;20431;-73
2022/08/28 00:18:40;;;;;;;15.43;13.93;;;;;;;;;;5036685;28;21384;-73
2022/08/28 00:21:07;;;;;;;15.57;14.07;;;;;;;;;;5071019;28;20497;-73
2022/08/28 00:23:34;;;;;;;16.00;14.30;;;;;;;;;;5036492;28;20437;-72
2022/08/28 00:26:08;;;;;;;14.83;13.43;;;;;;;;;;5054834;28;20858;-74
2022/08/28 00:28:35;;;;;;;14.50;12.57;;;;;;;;;;5053044;28;20436;-74
2022/08/28 00:31:03;;;;;;;18.70;14.27;;;;;;;;;;5052826;28;20473;-74
2022/08/28 00:33:31;;;;;;;18.10;13.60;;;;;;;;;;5070992;28;20420;-72
2022/08/28 00:35:59;;;;;;;14.93;13.37;;;;;;;;;;5036125;28;20793;-72
2022/08/28 00:38:27;;;;;;;15.03;12.20;;;;;;;;;;5070922;28;20843;-72
2022/08/28 00:40:56;;;;;;;14.97;13.37;;;;;;;;;;5052729;28;20510;-74
2022/08/28 00:43:24;;;;;;;15.57;13.97;;;;;;;;;;5052994;28;20436;-74
2022/08/28 00:45:51;;;;;;;15.43;13.70;;;;;;;;;;5053111;28;20485;-74
2022/08/28 00:48:18;;;;;;;16.00;13.27;;;;;;;;;;5053274;28;20527;-74
2022/08/28 00:53:30;;;;;;;13.77;12.33;;;;;;;;;;5052780;28;20807;-74
2022/08/28 00:56:00;;;;;;;16.87;14.80;;;;;;;;;;5053106;28;20456;-73
2022/08/28 00:58:26;;;;;;;14.00;12.60;;;;;;;;;;5053032;28;20920;-74
2022/08/28 01:00:53;;;;;;;16.27;14.60;;;;;;;;;;5052579;28;20865;-75
2022/08/28 01:03:20;;;;;;;15.67;14.13;;;;;;;;;;5041007;28;20487;-74
2022/08/28 01:05:52;;;;;;;15.03;13.40;;;;;;;;;;5056688;28;20805;-74
2022/08/28 01:08:18;;;;;;;15.23;13.70;;;;;;;;;;5040104;28;20450;-74
2022/08/28 01:10:48;;;;;;;14.27;12.87;;;;;;;;;;5074153;28;20449;-74
2022/08/28 01:13:16;;;;;;;16.73;15.00;;;;;;;;;;5056254;28;20434;-74
2022/08/28 01:15:43;;;;;;;14.90;13.27;;;;;;;;;;5039555;28;20460;-74
2022/08/28 01:18:12;;;;;;;15.77;14.20;;;;;;;;;;5039662;28;20428;-72
2022/08/28 01:20:42;;;;;;;20.63;15.23;;;;;;;;;;5073904;28;20448;-72
2022/08/28 01:23:09;;;;;;;18.77;14.70;;;;;;;;;;5039569;28;20878;-72
2022/08/28 01:25:36;;;;;;;17.97;13.80;;;;;;;;;;5073932;28;20482;-72
2022/08/28 01:28:05;;;;;;;15.53;13.17;;;;;;;;;;5073660;28;20428;-72
2022/08/28 01:30:31;;;;;;;16.07;14.47;;;;;;;;;;5039384;28;20974;-72
2022/08/28 01:32:59;;;;;;;22.40;14.23;;;;;;;;;;5073775;28;20428;-72
2022/08/28 01:35:28;;;;;;;18.60;14.60;;;;;;;;;;5073773;28;20496;-73
2022/08/28 01:37:55;;;;;;;17.23;14.17;;;;;;;;;;5055830;28;20797;-73
2022/08/28 01:40:26;;;;;;;16.17;13.87;;;;;;;;;;5055491;28;20567;-73
2022/08/28 01:42:54;;;;;;;14.83;13.33;;;;;;;;;;5055742;28;20432;-73
2022/08/28 01:45:22;;;;;;;17.07;14.37;;;;;;;;;;5055551;28;20876;-72
2022/08/28 01:47:49;;;;;;;15.77;14.30;;;;;;;;;;5055440;28;20486;-72
2022/08/28 01:50:18;;;;;;;17.00;15.20;;;;;;;;;;5055182;28;20510;-72
2022/08/28 01:52:45;;;;;;;17.30;15.80;;;;;;;;;;5039054;28;20436;-72
2022/08/28 01:55:11;;;;;;;16.93;15.27;;;;;;;;;;5038843;28;21281;-72
2022/08/28 01:57:42;;;;;;;15.17;13.77;;;;;;;;;;5055367;28;20461;-73
2022/08/28 02:00:09;;;;;;;15.90;14.23;;;;;;;;;;5055506;28;20488;-73
2022/08/28 02:02:37;;;;;;;21.23;18.47;;;;;;;;;;5074003;28;20783;-72
2022/08/28 02:05:03;;;;;;;18.23;16.37;;;;;;;;;;5055199;28;20424;-72
2022/08/28 02:07:30;;;;;;;18.70;16.77;;;;;;;;;;5038616;28;20539;-73
2022/08/28 02:09:56;;;;;;;18.63;15.60;;;;;;;;;;5073081;28;20487;-73
2022/08/28 02:12:24;;;;;;;22.10;16.87;;;;;;;;;;5038236;28;21004;-73
2022/08/28 02:14:50;;;;;;;19.10;15.57;;;;;;;;;;5072290;28;20456;-72
2022/08/28 02:17:17;;;;;;;19.03;16.47;;;;;;;;;;5030173;28;20512;-72
2022/08/28 02:19:43;;;;;;;18.40;16.43;;;;;;;;;;5051429;28;20441;-72
2022/08/28 02:22:12;;;;;;;19.60;17.60;;;;;;;;;;5055224;28;20420;-72
2022/08/28 02:24:38;;;;;;;17.73;16.00;;;;;;;;;;5054914;28;20440;-72
2022/08/28 02:27:05;;;;;;;21.07;18.47;;;;;;;;;;5055514;28;20440;-73
2022/08/28 02:29:32;;;;;;;18.40;16.00;;;;;;;;;;5072663;28;20448;-71
2022/08/28 02:31:58;;;;;;;20.43;18.30;;;;;;;;;;5038205;28;20434;-72
2022/08/28 02:34:25;;;;;;;20.10;17.33;;;;;;;;;;5054510;28;20484;-72
2022/08/28 02:36:51;;;;;;;19.93;18.03;;;;;;;;;;5054427;28;20432;-71
2022/08/28 02:39:18;;;;;;;18.40;16.70;;;;;;;;;;5041197;28;20457;-72
2022/08/28 02:41:44;;;;;;;20.23;16.67;;;;;;;;;;5054818;28;20916;-73
2022/08/28 02:44:11;;;;;;;17.93;16.00;;;;;;;;;;5037876;28;20420;-73
2022/08/28 02:46:37;;;;;;;20.00;17.27;;;;;;;;;;5054811;28;20490;-72
2022/08/28 02:49:04;;;;;;;18.60;16.07;;;;;;;;;;5054778;28;20436;-72
2022/08/28 02:51:32;;;;;;;20.07;18.03;;;;;;;;;;5055759;28;20440;-71
2022/08/28 02:53:59;;;;;;;19.83;17.70;;;;;;;;;;5038868;28;20440;-72
2022/08/28 02:56:26;;;;;;;20.30;17.70;;;;;;;;;;5054412;28;20539;-73
2022/08/28 02:58:52;;;;;;;18.47;16.57;;;;;;;;;;5037621;28;20433;-73
2022/08/28 03:01:21;;;;;;;18.73;16.93;;;;;;;;;;5054250;28;20440;-73
2022/08/28 03:03:48;;;;;;;17.10;15.23;;;;;;;;;;5054053;28;20459;-73
2022/08/28 03:06:15;;;;;;;20.50;17.60;;;;;;;;;;5037475;28;20952;-73
2022/08/28 03:08:42;;;;;;;21.60;17.00;;;;;;;;;;5054001;28;20871;-71
2022/08/28 03:11:08;;;;;;;17.77;16.07;;;;;;;;;;5071886;28;20444;-70
2022/08/28 03:13:35;;;;;;;20.83;17.10;;;;;;;;;;5033901;28;20468;-71
2022/08/28 03:16:03;;;;;;;20.80;17.50;;;;;;;;;;5050487;28;20503;-71
2022/08/28 03:18:31;;;;;;;22.43;18.43;;;;;;;;;;5053914;28;20433;-70
2022/08/28 03:20:59;;;;;;;19.17;17.20;;;;;;;;;;5037222;28;20456;-71
2022/08/28 03:23:26;;;;;;;19.50;17.40;;;;;;;;;;5053732;28;20865;-71
2022/08/28 03:25:52;;;;;;;20.20;15.40;;;;;;;;;;5037109;28;20486;-71
2022/08/28 03:28:19;;;;;;;17.67;15.80;;;;;;;;;;5053659;28;20432;-71
2022/08/28 03:30:46;;;;;;;17.37;15.73;;;;;;;;;;5071397;28;20482;-71
2022/08/28 03:33:13;;;;;;;21.00;18.00;;;;;;;;;;5053676;28;20472;-72
2022/08/28 03:35:39;;;;;;;21.87;18.00;;;;;;;;;;5036870;28;20471;-71
2022/08/28 03:38:06;;;;;;;19.57;15.70;;;;;;;;;;5053688;28;20424;-71
2022/08/28 03:40:33;;;;;;;19.40;15.83;;;;;;;;;;5053634;28;20531;-71
2022/08/28 03:42:59;;;;;;;18.97;17.07;;;;;;;;;;5037008;28;20439;-71
2022/08/28 03:45:26;;;;;;;18.43;16.60;;;;;;;;;;5053251;28;20523;-71
2022/08/28 03:47:52;;;;;;;21.37;16.33;;;;;;;;;;5053681;28;20523;-71
2022/08/28 03:50:19;;;;;;;21.07;15.13;;;;;;;;;;5053360;28;20506;-71
2022/08/28 03:52:46;;;;;;;18.33;16.43;;;;;;;;;;5053620;28;20455;-71
2022/08/28 03:55:12;;;;;;;18.37;16.47;;;;;;;;;;5053189;28;20541;-71
2022/08/28 03:57:39;;;;;;;14.70;13.23;;;;;;;;;;5053649;28;20420;-72
2022/08/28 04:00:08;;;;;;;16.60;14.90;;;;;;;;;;5071248;28;21051;-72
2022/08/28 04:02:38;;;;;;;20.27;15.40;;;;;;;;;;5037292;28;20440;-71
2022/08/28 04:05:05;;;;;;;16.10;13.97;;;;;;;;;;5053121;28;20790;-70
2022/08/28 04:07:32;;;;;;;18.33;13.67;;;;;;;;;;5036746;28;20502;-71
2022/08/28 04:09:58;;;;;;;17.27;14.57;;;;;;;;;;5071367;28;20452;-71
2022/08/28 04:12:25;;;;;;;14.93;13.50;;;;;;;;;;5036757;28;20437;-71
2022/08/28 04:14:53;;;;;;;16.90;14.33;;;;;;;;;;5053087;28;20472;-72
2022/08/28 04:17:19;;;;;;;25.87;14.00;;;;;;;;;;5071059;28;20452;-72
2022/08/28 04:19:46;;;;;;;15.97;13.67;;;;;;;;;;5036636;28;20882;-73
2022/08/28 04:22:12;;;;;;;21.63;13.07;;;;;;;;;;5071108;28;20456;-73
2022/08/28 04:24:39;;;;;;;17.10;13.37;;;;;;;;;;5071164;28;20429;-73
2022/08/28 04:27:05;;;;;;;14.20;12.70;;;;;;;;;;5071104;28;20448;-71
2022/08/28 04:29:32;;;;;;;17.30;12.67;;;;;;;;;;5036586;28;20532;-71
2022/08/28 04:31:58;;;;;;;15.77;13.23;;;;;;;;;;5071021;28;20479;-71
2022/08/28 04:34:26;;;;;;;14.07;12.63;;;;;;;;;;5053513;28;20448;-71
2022/08/28 04:36:53;;;;;;;13.17;11.93;;;;;;;;;;5037986;28;20835;-71
2022/08/28 04:39:19;;;;;;;16.40;11.80;;;;;;;;;;5056802;28;20535;-71
2022/08/28 04:41:48;;;;;;;16.10;10.93;;;;;;;;;;5040140;28;20511;-71
2022/08/28 04:44:14;;;;;;;14.57;13.17;;;;;;;;;;5056725;28;20464;-71
2022/08/28 04:46:41;;;;;;;12.63;11.43;;;;;;;;;;5040186;28;20475;-71
2022/08/28 04:49:07;;;;;;;17.53;13.53;;;;;;;;;;5056561;28;20563;-71
2022/08/28 04:51:34;;;;;;;15.37;12.30;;;;;;;;;;5074666;28;20448;-71
2022/08/28 04:54:09;;;;;;;14.07;12.70;;;;;;;;;;5057730;28;20850;-71
2022/08/28 04:56:37;;;;;;;15.50;12.77;;;;;;;;;;5056784;28;20492;-71
2022/08/28 04:59:04;;;;;;;13.40;11.70;;;;;;;;;;5039700;28;20519;-71
2022/08/28 05:01:30;;;;;;;14.80;12.93;;;;;;;;;;5056610;28;20436;-71
2022/08/28 05:03:58;;;;;;;12.70;11.40;;;;;;;;;;5056537;28;20429;-71
2022/08/28 05:06:26;;;;;;;13.77;11.40;;;;;;;;;;5056299;28;20463;-71
2022/08/28 05:08:54;;;;;;;10.97;9.80;;;;;;;;;;5074389;28;20427;-73
2022/08/28 05:11:22;;;;;;;17.00;12.50;;;;;;;;;;5056679;28;20441;-73
2022/08/28 05:13:59;;;;;;;12.70;11.10;;;;;;;;;;5041618;28;20426;-73
2022/08/28 05:16:26;;;;;;;15.57;11.63;;;;;;;;;;5074432;28;20491;-72
2022/08/28 05:18:52;;;;;;;15.30;11.50;;;;;;;;;;5039789;28;20947;-71
2022/08/28 05:21:20;;;;;;;14.40;12.20;;;;;;;;;;5073993;28;20420;-71
2022/08/28 05:23:52;;;;;;;12.80;11.53;;;;;;;;;;5056346;28;20449;-71
2022/08/28 05:26:19;;;;;;;16.77;11.33;;;;;;;;;;5039531;28;20444;-71
2022/08/28 05:28:46;;;;;;;15.17;12.07;;;;;;;;;;5055993;28;20530;-71
2022/08/28 05:31:17;;;;;;;16.90;11.73;;;;;;;;;;5074096;28;20935;-71
2022/08/28 05:33:44;;;;;;;24.03;11.40;;;;;;;;;;5039337;28;20932;-71
2022/08/28 05:36:11;;;;;;;16.13;11.30;;;;;;;;;;5056508;28;20448;-72
2022/08/28 05:38:37;;;;;;;11.50;9.93;;;;;;;;;;5056479;28;20425;-72
2022/08/28 05:41:05;;;;;;;11.27;9.97;;;;;;;;;;5074184;28;20445;-72
2022/08/28 05:43:31;;;;;;;18.17;9.97;;;;;;;;;;5056707;28;20428;-72
2022/08/28 05:45:59;;;;;;;13.33;10.03;;;;;;;;;;5074172;28;20421;-71
2022/08/28 05:48:26;;;;;;;11.60;10.27;;;;;;;;;;5056363;28;20424;-71
2022/08/28 05:51:05;;;;;;;11.50;10.30;;;;;;;;;;5080786;28;20449;-71
2022/08/28 05:53:40;;;;;;;12.80;10.47;;;;;;;;;;5041622;28;20955;-72
2022/08/28 05:56:07;;;;;;;12.60;10.60;;;;;;;;;;5039253;28;20537;-72
2022/08/28 05:58:34;;;;;;;12.33;10.20;;;;;;;;;;5073460;28;20512;-71
2022/08/28 06:01:03;;;;;;;14.33;10.43;;;;;;;;;;5073964;28;20507;-71
2022/08/28 06:03:30;;;;;;;12.77;10.57;;;;;;;;;;5040267;28;20438;-71
2022/08/28 06:05:59;;;;;;;11.90;10.33;;;;;;;;;;5057197;28;20865;-71
2022/08/28 06:08:26;;;;;;;11.23;10.03;;;;;;;;;;5055186;28;20524;-72
2022/08/28 06:10:53;;;;;;;13.77;10.67;;;;;;;;;;5044834;28;20492;-72
2022/08/28 06:13:19;;;;;;;11.70;10.60;;;;;;;;;;5070452;28;20424;-72
2022/08/28 06:15:46;;;;;;;14.93;10.67;;;;;;;;;;5038591;28;20543;-72
2022/08/28 06:18:14;;;;;;;10.63;9.63;;;;;;;;;;5054803;28;20524;-72
2022/08/28 06:20:43;;;;;;;11.00;10.00;;;;;;;;;;5054876;28;20448;-72
2022/08/28 06:23:11;;;;;;;11.57;9.80;;;;;;;;;;5020789;28;20430;-72
2022/08/28 06:25:38;;;;;;;11.73;9.67;;;;;;;;;;5046405;28;20429;-73
2022/08/28 06:28:06;;;;;;;14.50;10.60;;;;;;;;;;5038455;28;20985;-73
2022/08/28 06:30:35;;;;;;;10.90;9.90;;;;;;;;;;5054772;28;20484;-73
2022/08/28 06:33:06;;;;;;;12.10;10.77;;;;;;;;;;5038722;28;20464;-72
2022/08/28 06:35:33;;;;;;;10.97;9.77;;;;;;;;;;5038125;28;20476;-72
2022/08/28 06:38:00;;;;;;;13.43;10.10;;;;;;;;;;5047615;28;20942;-72
2022/08/28 06:40:27;;;;;;;17.20;9.73;;;;;;;;;;5048508;28;20460;-72
2022/08/28 06:42:53;;;;;;;14.03;9.87;;;;;;;;;;5054693;28;20432;-72
2022/08/28 06:45:20;;;;;;;10.67;9.20;;;;;;;;;;5054653;28;20417;-72
2022/08/28 06:47:46;;;;;;;12.70;9.30;;;;;;;;;;5054803;28;20525;-72
2022/08/28 06:50:16;;;;;;;18.83;9.80;;;;;;;;;;5038039;28;20522;-72
2022/08/28 06:52:42;;;;;;;12.37;9.33;;;;;;;;;;5054418;28;20433;-71
2022/08/28 06:55:09;;;;;;;11.37;10.27;;;;;;;;;;5054261;28;20498;-71
2022/08/28 06:57:37;;;;;;;11.33;8.83;;;;;;;;;;5054232;28;20425;-72
2022/08/28 07:00:04;;;;;;;9.50;8.60;;;;;;;;;;5053594;28;20493;-72
2022/08/28 07:02:30;;;;;;;10.10;9.10;;;;;;;;;;5072255;28;20458;-72
2022/08/28 07:04:57;;;;;;;14.33;9.90;;;;;;;;;;5055498;28;20417;-71
2022/08/28 07:07:25;;;;;;;11.30;8.80;;;;;;;;;;5055208;28;20452;-72
2022/08/28 07:09:57;;;;;;;13.87;10.40;;;;;;;;;;5054054;28;20498;-72
2022/08/28 07:12:24;;;;;;;12.43;10.00;;;;;;;;;;5053968;28;20459;-72
2022/08/28 07:14:50;;;;;;;11.63;9.00;;;;;;;;;;5071955;28;20535;-72
2022/08/28 07:17:17;;;;;;;10.40;9.40;;;;;;;;;;5037629;28;20467;-73
2022/08/28 07:19:43;;;;;;;10.23;9.43;;;;;;;;;;5072323;28;21013;-72
2022/08/28 07:22:10;;;;;;;10.20;9.20;;;;;;;;;;5054080;28;20920;-72
2022/08/28 07:24:37;;;;;;;12.90;8.93;;;;;;;;;;5053839;28;20501;-72
2022/08/28 07:27:04;;;;;;;12.40;10.23;;;;;;;;;;5037419;28;20472;-72
2022/08/28 07:29:31;;;;;;;16.97;11.30;;;;;;;;;;5053532;28;20480;-72
2022/08/28 07:31:58;;;;;;;12.50;9.73;;;;;;;;;;5053738;28;20876;-73
2022/08/28 07:34:24;;;;;;;13.93;9.23;;;;;;;;;;5053549;28;20456;-72
2022/08/28 07:36:52;;;;;;;11.07;9.97;;;;;;;;;;5037217;28;20543;-72
2022/08/28 07:39:19;;;;;;;15.50;9.20;;;;;;;;;;5036865;28;20506;-72
2022/08/28 07:41:46;;;;;;;11.77;9.13;;;;;;;;;;5053866;28;20440;-73
2022/08/28 07:47:01;;;;;;;9.77;8.67;;;;;;;;;;5053703;28;20562;-73
2022/08/28 07:49:27;;;;;;;10.33;9.23;;;;;;;;;;5071475;28;20466;-73
2022/08/28 07:51:54;;;;;;;13.30;9.00;;;;;;;;;;5053480;28;20470;-73
2022/08/28 07:54:21;;;;;;;9.87;8.87;;;;;;;;;;5053482;28;20936;-72
2022/08/28 07:56:47;;;;;;;15.23;8.67;;;;;;;;;;5039750;28;20463;-71
2022/08/28 07:59:15;;;;;;;9.63;7.30;;;;;;;;;;5053242;28;20526;-72
2022/08/28 08:01:45;;;;;;;9.03;7.97;;;;;;;;;;5071360;28;20412;-72
2022/08/28 08:04:13;;;;;;;11.30;8.20;;;;;;;;;;5053292;28;20960;-71
2022/08/28 08:06:39;;;;;;;9.27;8.13;;;;;;;;;;5053403;28;20456;-72
2022/08/28 08:09:10;;;;;;;9.10;8.17;;;;;;;;;;5053378;28;20499;-72
2022/08/28 08:11:37;;;;;;;13.90;7.33;;;;;;;;;;5054572;28;20845;-72
2022/08/28 08:14:04;;;;;;;10.10;7.20;;;;;;;;;;5057532;28;20424;-72
2022/08/28 08:16:33;;;;;;;8.37;7.27;;;;;;;;;;5057004;28;20497;-71
2022/08/28 08:19:00;;;;;;;11.43;7.80;;;;;;;;;;5075310;28;20429;-72
2022/08/28 08:21:27;;;;;;;9.90;7.50;;;;;;;;;;5040618;28;20494;-72
2022/08/28 08:23:56;;;;;;;12.00;6.90;;;;;;;;;;5057037;28;20809;-72
2022/08/28 08:26:24;;;;;;;9.50;7.03;;;;;;;;;;5057088;28;20440;-72
2022/08/28 08:28:50;;;;;;;7.97;6.50;;;;;;;;;;5057461;28;20515;-72
2022/08/28 08:31:19;;;;;;;10.90;6.50;;;;;;;;;;5057110;28;20456;-73
2022/08/28 08:33:47;;;;;;;8.00;6.53;;;;;;;;;;5057235;28;20535;-72
2022/08/28 08:36:15;;;;;;;7.90;5.80;;;;;;;;;;5075009;28;20827;-73
2022/08/28 08:38:41;;;;;;;12.67;6.60;;;;;;;;;;5056662;28;21158;-73
2022/08/28 08:41:10;;;;;;;10.03;6.00;;;;;;;;;;5040385;28;20448;-72
2022/08/28 08:43:44;;;;;;;10.80;6.70;;;;;;;;;;5056702;28;20502;-72
2022/08/28 08:46:11;;;;;;;9.70;6.00;;;;;;;;;;5044682;28;20440;-73
2022/08/28 08:48:39;;;;;;;9.13;5.43;;;;;;;;;;5040180;28;20519;-73
2022/08/28 08:51:13;;;;;;;9.03;5.77;;;;;;;;;;5056756;28;20464;-72
2022/08/28 08:53:46;;;;;;;9.00;6.23;;;;;;;;;;5074569;28;20427;-72
2022/08/28 08:56:15;;;;;;;7.90;5.70;;;;;;;;;;5074452;28;20461;-73
2022/08/28 08:58:46;;;;;;;12.90;6.80;;;;;;;;;;5056592;28;20519;-72
2022/08/28 09:01:31;;;;;;;12.53;6.43;;;;;;;;;;5074507;28;20806;-73
2022/08/28 09:04:24;;;;;;;10.37;6.73;;;;;;;;;;5039904;28;20429;-73
2022/08/28 09:07:02;;;;;;;11.60;5.17;;;;;;;;;;5039235;28;20437;-72
2022/08/28 09:09:29;;;;;;;8.90;6.00;;;;;;;;;;5048244;28;20518;-72
2022/08/28 09:12:02;;;;;;;10.73;5.83;;;;;;;;;;5056533;28;20507;-73
2022/08/28 09:14:42;;;;;;;11.37;6.20;;;;;;;;;;5056648;28;20436;-72
2022/08/28 09:17:10;;;;;;;7.10;5.10;;;;;;;;;;5039609;28;20460;-72
2022/08/28 09:19:37;;;;;;;5.60;5.10;;;;;;;;;;5073986;28;20452;-72
2022/08/28 09:22:04;;;;;;;14.83;6.03;;;;;;;;;;5039153;28;20476;-72
2022/08/28 09:24:31;;;;;;;8.13;4.93;;;;;;;;;;5056183;28;20482;-72
2022/08/28 09:27:00;;;;;;;7.97;4.90;;;;;;;;;;5056397;28;20417;-73
2022/08/28 09:29:32;;;;;;;5.13;4.17;;;;;;;;;;5039104;28;20466;-72
2022/08/28 09:32:14;;;;;;;12.37;4.60;;;;;;;;;;5073846;28;20424;-73
2022/08/28 09:34:57;;;;;;;6.90;4.47;;;;;;;;;;5050246;28;20433;-72
2022/08/28 09:37:28;;;;;;;10.50;5.20;;;;;;;;;;5050116;28;20452;-73
2022/08/28 09:40:14;;;;;;;8.80;5.23;;;;;;;;;;5055903;28;20454;-72
2022/08/28 09:45:40;;;;;;;5.80;5.10;;;;;;;;;;5075868;28;20943;-72
2022/08/28 09:48:18;;;;;;;9.10;4.90;;;;;;;;;;5056752;28;20440;-72
2022/08/28 09:50:56;;;;;;;5.60;5.10;;;;;;;;;;5073770;28;20460;-72
2022/08/28 09:53:23;;;;;;;7.60;4.70;;;;;;;;;;5055890;28;20466;-72
2022/08/28 09:55:52;;;;;;;7.53;4.73;;;;;;;;;;5073965;28;20994;-73
2022/08/28 09:58:25;;;;;;;13.30;5.23;;;;;;;;;;5055739;28;20514;-73
2022/08/28 10:00:55;;;;;;;12.90;5.13;;;;;;;;;;5074389;28;21031;-72
2022/08/28 10:03:34;;;;;;;6.77;4.53;;;;;;;;;;5055568;28;20425;-72
2022/08/28 10:06:17;;;;;;;7.67;4.83;;;;;;;;;;5039310;28;20464;-72
2022/08/28 10:08:43;;;;;;;9.03;4.87;;;;;;;;;;5055622;28;20513;-73
2022/08/28 10:11:36;;;;;;;5.60;4.97;;;;;;;;;;5054961;28;20486;-73
2022/08/28 10:14:03;;;;;;;5.53;4.90;;;;;;;;;;5032457;28;20440;-73
2022/08/28 10:16:41;;;;;;;7.47;4.67;;;;;;;;;;5055391;28;20467;-73
2022/08/28 10:19:28;;;;;;;8.37;6.20;;;;;;;;;;5055075;28;20982;-73
2022/08/28 10:22:15;;;;;;;8.33;4.73;;;;;;;;;;5025028;28;20476;-73
2022/08/28 10:24:56;;;;;;;10.50;5.20;;;;;;;;;;5051821;28;20471;-74
2022/08/28 10:27:30;;;;;;;8.80;4.67;;;;;;;;;;5042947;28;20430;-74
2022/08/28 10:30:09;;;;;;;14.70;4.97;;;;;;;;;;5042213;28;20933;-73
2022/08/28 10:32:41;;;;;;;9.27;5.50;;;;;;;;;;5055039;28;20439;-73
2022/08/28 10:35:09;;;;;;;8.83;6.00;;;;;;;;;;5037743;28;20471;-73
2022/08/28 10:37:42;;;;;;;6.80;5.50;;;;;;;;;;5054699;28;20488;-72
2022/08/28 10:40:14;;;;;;;14.50;5.80;;;;;;;;;;5055231;28;20815;-72
2022/08/28 10:42:44;;;;;;;6.70;4.57;;;;;;;;;;5072554;28;20417;-72
2022/08/28 10:45:22;;;;;;;6.47;4.90;;;;;;;;;;5038096;28;20467;-72
2022/08/28 10:47:50;;;;;;;9.80;6.50;;;;;;;;;;5072608;28;20507;-72
2022/08/28 10:50:21;;;;;;;8.87;5.00;;;;;;;;;;5054598;28;20456;-73
2022/08/28 10:52:52;;;;;;;9.93;5.53;;;;;;;;;;5054472;28;20435;-72
2022/08/28 10:55:23;;;;;;;15.13;6.03;;;;;;;;;;5054937;28;20424;-73
2022/08/28 10:57:58;;;;;;;16.63;5.40;;;;;;;;;;5037693;28;20460;-72
2022/08/28 11:00:26;;;;;;;12.57;6.33;;;;;;;;;;5037577;28;20999;-72
2022/08/28 11:03:21;;;;;;;7.00;5.20;;;;;;;;;;5054324;28;20502;-72
2022/08/28 11:06:04;;;;;;;7.80;5.50;;;;;;;;;;5051078;28;20429;-72
2022/08/28 11:08:33;;;;;;;10.93;5.13;;;;;;;;;;5070394;28;20489;-72
2022/08/28 11:11:05;;;;;;;11.10;5.13;;;;;;;;;;5054204;28;20460;-74
2022/08/28 11:13:44;;;;;;;8.20;5.47;;;;;;;;;;5072105;28;20958;-72
2022/08/28 11:16:31;;;;;;;7.33;5.10;;;;;;;;;;5054023;28;20498;-72
2022/08/28 11:19:08;;;;;;;5.70;4.97;;;;;;;;;;5043505;28;20432;-72
2022/08/28 11:21:39;;;;;;;12.63;4.67;;;;;;;;;;5071801;28;20416;-73
2022/08/28 11:24:20;;;;;;;7.47;4.90;;;;;;;;;;5053722;28;20437;-72
2022/08/28 11:27:05;;;;;;;13.23;4.90;;;;;;;;;;5037460;28;20793;-73
2022/08/28 11:29:50;;;;;;;9.13;5.40;;;;;;;;;;5036968;28;21071;-73
2022/08/28 11:32:35;;;;;;;6.97;5.43;;;;;;;;;;5053579;28;20912;-73
2022/08/28 11:35:03;;;;;;;9.23;4.97;;;;;;;;;;5036838;28;20433;-72
2022/08/28 11:37:40;;;;;;;10.10;5.87;;;;;;;;;;5067575;28;20997;-72
2022/08/28 11:40:17;;;;;;;7.40;5.00;;;;;;;;;;5053696;28;20483;-73
2022/08/28 11:42:47;;;;;;;8.90;5.63;;;;;;;;;;5053348;28;20932;-73
2022/08/28 11:45:37;;;;;;;6.53;4.83;;;;;;;;;;5071340;28;20427;-73
2022/08/28 11:48:27;;;;;;;8.07;5.00;;;;;;;;;;5053406;28;20479;-72
2022/08/28 11:50:56;;;;;;;7.33;5.20;;;;;;;;;;5053764;28;20495;-72
2022/08/28 11:53:41;;;;;;;7.50;4.70;;;;;;;;;;5053895;28;20490;-72
2022/08/28 11:56:29;;;;;;;7.07;5.00;;;;;;;;;;5042434;28;20515;-73
2022/08/28 11:59:00;;;;;;;10.60;5.57;;;;;;;;;;5053612;28;20435;-73
2022/08/28 12:01:38;;;;;;;6.43;4.93;;;;;;;;;;5054447;28;20443;-73
2022/08/28 12:04:12;;;;;;;9.60;5.67;;;;;;;;;;5036835;28;20425;-73
2022/08/28 12:06:48;;;;;;;9.67;5.80;;;;;;;;;;5053439;28;20462;-72
2022/08/28 12:09:24;;;;;;;7.80;6.00;;;;;;;;;;5071018;28;20475;-72
2022/08/28 12:12:20;;;;;;;7.67;5.90;;;;;;;;;;5036538;28;20861;-73
2022/08/28 12:14:47;;;;;;;10.13;5.17;;;;;;;;;;5040176;28;20424;-73
2022/08/28 12:17:13;;;;;;;9.30;5.70;;;;;;;;;;5036302;28;20465;-73
2022/08/28 12:19:42;;;;;;;10.53;6.23;;;;;;;;;;5036156;28;20980;-73
2022/08/28 12:22:38;;;;;;;6.57;4.80;;;;;;;;;;5052684;28;20432;-73
2022/08/28 12:25:05;;;;;;;5.70;5.20;;;;;;;;;;5036339;28;20463;-73
2022/08/28 12:27:36;;;;;;;11.13;5.53;;;;;;;;;;5052491;28;20428;-73
2022/08/28 12:30:03;;;;;;;10.97;6.50;;;;;;;;;;5036101;28;20537;-73
2022/08/28 12:32:33;;;;;;;7.80;5.53;;;;;;;;;;5052536;28;20462;-73
2022/08/28 12:35:00;;;;;;;6.97;5.50;;;;;;;;;;5070504;28;20467;-73
2022/08/28 12:37:39;;;;;;;7.80;5.40;;;;;;;;;;5052434;28;20898;-73
2022/08/28 12:40:18;;;;;;;9.10;5.80;;;;;;;;;;5037668;28;20976;-73
2022/08/28 12:42:48;;;;;;;7.97;5.57;;;;;;;;;;5052415;28;20486;-73
2022/08/28 12:45:26;;;;;;;14.03;6.40;;;;;;;;;;5051631;28;20527;-73
2022/08/28 12:47:55;;;;;;;5.63;4.63;;;;;;;;;;5035926;28;20544;-73
2022/08/28 12:50:35;;;;;;;8.23;5.53;;;;;;;;;;5052352;28;20495;-73
2022/08/28 12:53:04;;;;;;;9.30;4.77;;;;;;;;;;5052215;28;21015;-73
2022/08/28 12:55:31;;;;;;;5.90;5.10;;;;;;;;;;5052522;28;20967;-73
2022/08/28 12:57:58;;;;;;;5.10;4.60;;;;;;;;;;5037371;28;20502;-73
2022/08/28 13:00:28;;;;;;;7.77;5.53;;;;;;;;;;5039433;28;20502;-73
2022/08/28 13:02:55;;;;;;;9.23;5.53;;;;;;;;;;5039512;28;20497;-73
2022/08/28 13:05:33;;;;;;;5.73;5.10;;;;;;;;;;5074130;28;20455;-73
2022/08/28 13:08:02;;;;;;;7.77;5.87;;;;;;;;;;5056044;28;20481;-74
2022/08/28 13:10:32;;;;;;;7.57;5.63;;;;;;;;;;5074015;28;20448;-73
2022/08/28 13:12:58;;;;;;;7.83;4.50;;;;;;;;;;5055931;28;20428;-73
2022/08/28 13:16:00;;;;;;;7.80;4.77;;;;;;;;;;5074011;28;20808;-74
2022/08/28 13:18:35;;;;;;;7.37;5.43;;;;;;;;;;5002551;28;20518;-73
2022/08/28 13:21:11;;;;;;;7.90;5.57;;;;;;;;;;5055766;28;20970;-74
2022/08/28 13:23:38;;;;;;;5.73;4.73;;;;;;;;;;5078853;28;20428;-73
2022/08/28 13:26:05;;;;;;;8.30;4.47;;;;;;;;;;5061069;28;20885;-73
2022/08/28 13:28:39;;;;;;;7.63;5.77;;;;;;;;;;5039407;28;20432;-73
2022/08/28 13:31:20;;;;;;;10.40;4.50;;;;;;;;;;5073619;28;20444;-74
2022/08/28 13:34:01;;;;;;;5.87;4.93;;;;;;;;;;5056155;28;20397;-74
2022/08/28 13:36:27;;;;;;;8.70;5.33;;;;;;;;;;5023430;28;20452;-73
2022/08/28 13:38:54;;;;;;;6.20;5.60;;;;;;;;;;5038863;28;21022;-73
2022/08/28 13:41:20;;;;;;;12.37;5.67;;;;;;;;;;5055729;28;20486;-73
2022/08/28 13:43:47;;;;;;;6.40;5.77;;;;;;;;;;5056194;28;20928;-73
2022/08/28 13:46:14;;;;;;;8.77;5.07;;;;;;;;;;5055717;28;20432;-73
2022/08/28 13:48:41;;;;;;;8.97;5.20;;;;;;;;;;5055460;28;20428;-73
2022/08/28 13:51:09;;;;;;;6.80;5.83;;;;;;;;;;5054977;28;20540;-73
2022/08/28 13:53:38;;;;;;;9.63;6.23;;;;;;;;;;5073118;28;20424;-73
2022/08/28 13:56:05;;;;;;;10.87;5.10;;;;;;;;;;5038835;28;20456;-74
2022/08/28 13:58:31;;;;;;;7.27;6.20;;;;;;;;;;5038481;28;20608;-73
2022/08/28 14:00:58;;;;;;;8.47;5.60;;;;;;;;;;5038457;28;20444;-73
2022/08/28 14:03:37;;;;;;;6.53;5.10;;;;;;;;;;5072974;28;20912;-73
2022/08/28 14:06:09;;;;;;;9.43;6.17;;;;;;;;;;5073020;28;20782;-73
2022/08/28 14:08:37;;;;;;;12.17;6.73;;;;;;;;;;5072504;28;20428;-72
2022/08/28 14:11:03;;;;;;;6.63;5.93;;;;;;;;;;5054416;28;20500;-72
2022/08/28 14:13:30;;;;;;;9.60;6.47;;;;;;;;;;5054839;28;20432;-72
2022/08/28 14:15:57;;;;;;;8.30;5.23;;;;;;;;;;5072992;28;20443;-71
2022/08/28 14:18:24;;;;;;;13.83;6.13;;;;;;;;;;5037951;28;20500;-71
2022/08/28 14:20:51;;;;;;;6.90;6.20;;;;;;;;;;5054851;28;20483;-73
2022/08/28 14:23:17;;;;;;;7.20;5.80;;;;;;;;;;5054532;28;20475;-73
2022/08/28 14:25:44;;;;;;;9.03;6.13;;;;;;;;;;5054697;28;20512;-73
2022/08/28 14:28:13;;;;;;;8.27;5.50;;;;;;;;;;5037917;28;20481;-74
2022/08/28 14:30:40;;;;;;;7.47;5.23;;;;;;;;;;5054529;28;20480;-74
2022/08/28 14:33:06;;;;;;;9.00;6.23;;;;;;;;;;5057829;28;20476;-74
2022/08/28 14:35:36;;;;;;;6.37;5.80;;;;;;;;;;5054353;28;20480;-74
2022/08/28 14:38:03;;;;;;;7.30;6.40;;;;;;;;;;5046595;28;20500;-74
2022/08/28 14:40:29;;;;;;;14.43;6.83;;;;;;;;;;5048454;28;20444;-72
2022/08/28 14:42:56;;;;;;;10.00;6.83;;;;;;;;;;5072167;28;20429;-71
2022/08/28 14:45:22;;;;;;;7.33;6.60;;;;;;;;;;5054028;28;20523;-72
2022/08/28 14:47:49;;;;;;;8.10;6.40;;;;;;;;;;5054400;28;20430;-73
2022/08/28 14:50:16;;;;;;;7.00;6.30;;;;;;;;;;5071609;28;20467;-73
2022/08/28 14:52:42;;;;;;;7.40;5.83;;;;;;;;;;5054173;28;20509;-73